BVL7706 LQMO-LBSF
Flight info
| Callsign | BVL7706 |
|---|---|
| Flight time | 0h 45m |
| Altitude | 35000 |
| Route | XELMI DCT BLC DCT NISVA |
| Aircraft | A320/M-SDE3FGHIRWY/LB1 |
Departure
| Time | 2026-04-20 12:04 |
|---|---|
| Airport | Mostar International Airport (LQMO) |
Arrival
| Time | 2026-04-20 12:49 |
|---|---|
| Airport | Sofia Airport (LBSF) |
| Time | Latitude | Longitude | Altitude | Speed | Heading |
|---|---|---|---|---|---|
| 2026-04-20 11:54 | 43.29072 | 17.83699 | 179 ft | 0 kts | 13° |
| 2026-04-20 12:00 | 43.29073 | 17.83702 | 179 ft | 1 kts | 34° |
| 2026-04-20 12:01 | 43.29063 | 17.83735 | 179 ft | 4 kts | 124° |
| 2026-04-20 12:01 | 43.29062 | 17.83782 | 179 ft | 9 kts | 73° |
| 2026-04-20 12:01 | 43.29108 | 17.83802 | 179 ft | 7 kts | 342° |
| 2026-04-20 12:01 | 43.29149 | 17.83778 | 179 ft | 6 kts | 337° |
| 2026-04-20 12:02 | 43.29211 | 17.83772 | 181 ft | 8 kts | 36° |
| 2026-04-20 12:02 | 43.29237 | 17.83847 | 181 ft | 14 kts | 70° |
| 2026-04-20 12:02 | 43.29275 | 17.84004 | 183 ft | 12 kts | 85° |
| 2026-04-20 12:02 | 43.29222 | 17.84065 | 182 ft | 1 kts | 159° |
| 2026-04-20 12:03 | 43.29218 | 17.84068 | 182 ft | 6 kts | 159° |
| 2026-04-20 12:03 | 43.28946 | 17.84218 | 179 ft | 81 kts | 158° |
| 2026-04-20 12:03 | 43.28212 | 17.84628 | 175 ft | 143 kts | 156° |
| 2026-04-20 12:03 | 43.27228 | 17.85192 | 653 ft | 156 kts | 158° |
| 2026-04-20 12:04 | 43.26212 | 17.85738 | 1431 ft | 156 kts | 163° |
| 2026-04-20 12:04 | 43.25125 | 17.85954 | 2114 ft | 164 kts | 182° |
| 2026-04-20 12:04 | 43.23943 | 17.85617 | 2561 ft | 185 kts | 204° |
| 2026-04-20 12:04 | 43.22816 | 17.84570 | 3048 ft | 208 kts | 228° |
| 2026-04-20 12:05 | 43.22008 | 17.82805 | 3545 ft | 230 kts | 246° |
| 2026-04-20 12:05 | 43.21353 | 17.80755 | 4333 ft | 242 kts | 249° |
| 2026-04-20 12:05 | 43.21138 | 17.78390 | 4975 ft | 261 kts | 278° |
| 2026-04-20 12:05 | 43.21869 | 17.76099 | 5882 ft | 269 kts | 309° |
| 2026-04-20 12:06 | 43.23394 | 17.74633 | 6870 ft | 274 kts | 341° |
| 2026-04-20 12:06 | 43.25291 | 17.74491 | 7858 ft | 281 kts | 12° |
| 2026-04-20 12:06 | 43.27024 | 17.75759 | 8821 ft | 288 kts | 36° |
| 2026-04-20 12:06 | 43.28567 | 17.77529 | 9802 ft | 291 kts | 38° |
| 2026-04-20 12:07 | 43.30111 | 17.79394 | 10424 ft | 305 kts | 38° |
| 2026-04-20 12:07 | 43.31762 | 17.81412 | 10727 ft | 330 kts | 39° |
| 2026-04-20 12:07 | 43.33531 | 17.83568 | 11113 ft | 349 kts | 38° |
| 2026-04-20 12:07 | 43.35375 | 17.85805 | 11798 ft | 357 kts | 38° |
| 2026-04-20 12:08 | 43.37264 | 17.88080 | 12584 ft | 363 kts | 38° |
| 2026-04-20 12:08 | 43.39178 | 17.90373 | 13371 ft | 368 kts | 37° |
| 2026-04-20 12:08 | 43.41120 | 17.92700 | 14066 ft | 373 kts | 36° |
| 2026-04-20 12:08 | 43.43092 | 17.95063 | 14772 ft | 377 kts | 37° |
| 2026-04-20 12:09 | 43.45080 | 17.97441 | 15512 ft | 380 kts | 37° |
| 2026-04-20 12:09 | 43.47088 | 17.99842 | 16210 ft | 384 kts | 37° |
| 2026-04-20 12:09 | 43.49114 | 18.02265 | 16913 ft | 388 kts | 37° |
| 2026-04-20 12:09 | 43.51156 | 18.04716 | 17574 ft | 391 kts | 37° |
| 2026-04-20 12:10 | 43.53215 | 18.07194 | 18244 ft | 395 kts | 37° |
| 2026-04-20 12:10 | 43.55254 | 18.09768 | 18816 ft | 402 kts | 43° |
| 2026-04-20 12:10 | 43.56948 | 18.12877 | 19359 ft | 412 kts | 56° |
| 2026-04-20 12:10 | 43.58136 | 18.16533 | 19865 ft | 423 kts | 69° |
| 2026-04-20 12:11 | 43.58708 | 18.20550 | 20403 ft | 432 kts | 83° |
| 2026-04-20 12:11 | 43.58607 | 18.24717 | 20896 ft | 439 kts | 97° |
| 2026-04-20 12:11 | 43.58136 | 18.28903 | 21374 ft | 443 kts | 97° |
| 2026-04-20 12:11 | 43.57651 | 18.33114 | 21892 ft | 447 kts | 98° |
| 2026-04-20 12:12 | 43.57156 | 18.37370 | 22362 ft | 452 kts | 98° |
| 2026-04-20 12:12 | 43.56656 | 18.41669 | 22843 ft | 456 kts | 98° |
| 2026-04-20 12:12 | 43.56153 | 18.46010 | 23295 ft | 461 kts | 98° |
| 2026-04-20 12:12 | 43.55644 | 18.50393 | 23710 ft | 465 kts | 97° |
| 2026-04-20 12:13 | 43.55131 | 18.54807 | 24127 ft | 467 kts | 97° |
| 2026-04-20 12:13 | 43.54616 | 18.59233 | 24546 ft | 470 kts | 97° |
| 2026-04-20 12:13 | 43.54096 | 18.63692 | 24947 ft | 472 kts | 97° |
| 2026-04-20 12:13 | 43.53572 | 18.68174 | 25353 ft | 475 kts | 97° |
| 2026-04-20 12:14 | 43.53042 | 18.72674 | 25759 ft | 477 kts | 97° |
| 2026-04-20 12:14 | 43.52508 | 18.77199 | 26157 ft | 479 kts | 97° |
| 2026-04-20 12:14 | 43.51968 | 18.81745 | 26547 ft | 482 kts | 97° |
| 2026-04-20 12:14 | 43.51425 | 18.86312 | 26949 ft | 484 kts | 97° |
| 2026-04-20 12:15 | 43.50878 | 18.90899 | 27363 ft | 487 kts | 97° |
| 2026-04-20 12:15 | 43.50326 | 18.95515 | 27759 ft | 489 kts | 97° |
| 2026-04-20 12:15 | 43.49769 | 19.00147 | 28124 ft | 492 kts | 97° |
| 2026-04-20 12:15 | 43.49204 | 19.04817 | 28469 ft | 494 kts | 97° |
| 2026-04-20 12:16 | 43.48634 | 19.09491 | 28801 ft | 497 kts | 97° |
| 2026-04-20 12:16 | 43.48057 | 19.14198 | 29133 ft | 500 kts | 97° |
| 2026-04-20 12:16 | 43.47478 | 19.18926 | 29452 ft | 502 kts | 97° |
| 2026-04-20 12:16 | 43.46898 | 19.23670 | 29764 ft | 504 kts | 96° |
| 2026-04-20 12:17 | 43.46315 | 19.28433 | 30088 ft | 506 kts | 96° |
| 2026-04-20 12:17 | 43.45724 | 19.33210 | 30469 ft | 505 kts | 96° |
| 2026-04-20 12:17 | 43.45131 | 19.37975 | 30866 ft | 504 kts | 96° |
| 2026-04-20 12:17 | 43.44539 | 19.42726 | 31214 ft | 503 kts | 96° |
| 2026-04-20 12:18 | 43.43949 | 19.47446 | 31602 ft | 502 kts | 96° |
| 2026-04-20 12:18 | 43.43355 | 19.52193 | 32004 ft | 501 kts | 96° |
| 2026-04-20 12:18 | 43.42761 | 19.56918 | 32415 ft | 500 kts | 96° |
| 2026-04-20 12:18 | 43.42167 | 19.61631 | 32805 ft | 499 kts | 96° |
| 2026-04-20 12:19 | 43.41573 | 19.66335 | 33205 ft | 498 kts | 96° |
| 2026-04-20 12:19 | 43.40979 | 19.71027 | 33606 ft | 497 kts | 96° |
| 2026-04-20 12:19 | 43.40384 | 19.75710 | 33983 ft | 497 kts | 96° |
| 2026-04-20 12:19 | 43.39785 | 19.80383 | 34331 ft | 496 kts | 96° |
| 2026-04-20 12:20 | 43.39378 | 19.83535 | 34545 ft | 495 kts | 96° |
| 2026-04-20 12:20 | 43.38778 | 19.88189 | 34861 ft | 495 kts | 97° |
| 2026-04-20 12:20 | 43.38183 | 19.92796 | 34984 ft | 495 kts | 97° |
| 2026-04-20 12:20 | 43.37581 | 19.97450 | 35006 ft | 494 kts | 97° |
| 2026-04-20 12:21 | 43.36377 | 20.06743 | 35012 ft | 494 kts | 97° |
| 2026-04-20 12:21 | 43.35163 | 20.16030 | 35012 ft | 494 kts | 97° |
| 2026-04-20 12:22 | 43.33938 | 20.25314 | 35007 ft | 493 kts | 97° |
| 2026-04-20 12:22 | 43.32715 | 20.34541 | 35011 ft | 493 kts | 97° |
| 2026-04-20 12:23 | 43.31474 | 20.43848 | 35006 ft | 493 kts | 97° |
| 2026-04-20 12:23 | 43.30232 | 20.53098 | 35002 ft | 493 kts | 97° |
| 2026-04-20 12:24 | 43.28977 | 20.62365 | 35004 ft | 493 kts | 97° |
| 2026-04-20 12:24 | 43.27716 | 20.71604 | 35011 ft | 492 kts | 98° |
| 2026-04-20 12:25 | 43.26453 | 20.80842 | 35010 ft | 492 kts | 98° |
| 2026-04-20 12:25 | 43.25187 | 20.90064 | 35004 ft | 492 kts | 98° |
| 2026-04-20 12:26 | 43.23909 | 20.99282 | 35010 ft | 492 kts | 98° |
| 2026-04-20 12:26 | 43.22624 | 21.08493 | 35009 ft | 492 kts | 98° |
| 2026-04-20 12:27 | 43.21323 | 21.17695 | 35012 ft | 492 kts | 98° |
| 2026-04-20 12:27 | 43.20020 | 21.26897 | 34804 ft | 492 kts | 98° |
| 2026-04-20 12:28 | 43.19368 | 21.31508 | 34566 ft | 492 kts | 98° |
| 2026-04-20 12:28 | 43.18717 | 21.36111 | 34331 ft | 492 kts | 98° |
| 2026-04-20 12:28 | 43.18064 | 21.40698 | 34088 ft | 492 kts | 98° |
| 2026-04-20 12:28 | 43.17404 | 21.45314 | 33822 ft | 493 kts | 98° |
| 2026-04-20 12:29 | 43.16743 | 21.49918 | 33551 ft | 493 kts | 99° |
| 2026-04-20 12:29 | 43.16078 | 21.54527 | 33279 ft | 493 kts | 99° |
| 2026-04-20 12:29 | 43.15410 | 21.59129 | 33007 ft | 494 kts | 99° |
| 2026-04-20 12:29 | 43.14739 | 21.63751 | 32736 ft | 494 kts | 99° |
| 2026-04-20 12:30 | 43.14069 | 21.68367 | 32278 ft | 494 kts | 99° |
| 2026-04-20 12:30 | 43.13396 | 21.73003 | 30967 ft | 496 kts | 99° |
| 2026-04-20 12:30 | 43.12718 | 21.77650 | 29652 ft | 503 kts | 100° |
| 2026-04-20 12:30 | 43.12025 | 21.82393 | 28380 ft | 509 kts | 100° |
| 2026-04-20 12:31 | 43.11336 | 21.87098 | 27730 ft | 501 kts | 100° |
| 2026-04-20 12:31 | 43.10649 | 21.91762 | 26878 ft | 498 kts | 101° |
| 2026-04-20 12:31 | 43.09965 | 21.96382 | 26069 ft | 493 kts | 101° |
| 2026-04-20 12:31 | 43.09283 | 22.00968 | 25265 ft | 489 kts | 101° |
| 2026-04-20 12:32 | 43.08606 | 22.05497 | 24483 ft | 485 kts | 101° |
| 2026-04-20 12:32 | 43.07930 | 22.10003 | 23703 ft | 482 kts | 102° |
| 2026-04-20 12:32 | 43.07261 | 22.14469 | 22861 ft | 478 kts | 102° |
| 2026-04-20 12:32 | 43.06597 | 22.18904 | 22144 ft | 472 kts | 102° |
| 2026-04-20 12:33 | 43.05942 | 22.23266 | 21463 ft | 466 kts | 102° |
| 2026-04-20 12:33 | 43.05291 | 22.27585 | 20809 ft | 460 kts | 102° |
| 2026-04-20 12:33 | 43.04649 | 22.31832 | 20188 ft | 454 kts | 102° |
| 2026-04-20 12:33 | 43.04010 | 22.36035 | 19580 ft | 449 kts | 102° |
| 2026-04-20 12:34 | 43.03378 | 22.40180 | 18998 ft | 443 kts | 102° |
| 2026-04-20 12:34 | 43.02748 | 22.44292 | 18425 ft | 438 kts | 102° |
| 2026-04-20 12:34 | 43.02126 | 22.48349 | 17806 ft | 433 kts | 102° |
| 2026-04-20 12:34 | 43.01507 | 22.52404 | 17237 ft | 428 kts | 102° |
| 2026-04-20 12:35 | 43.00910 | 22.56301 | 16676 ft | 422 kts | 102° |
| 2026-04-20 12:35 | 43.00307 | 22.60207 | 16082 ft | 417 kts | 102° |
| 2026-04-20 12:35 | 42.99799 | 22.63490 | 15605 ft | 413 kts | 102° |
| 2026-04-20 12:35 | 42.99205 | 22.67321 | 15007 ft | 410 kts | 102° |
| 2026-04-20 12:36 | 42.98608 | 22.71170 | 14395 ft | 408 kts | 102° |
| 2026-04-20 12:36 | 42.98021 | 22.74951 | 13786 ft | 406 kts | 102° |
| 2026-04-20 12:36 | 42.97441 | 22.78631 | 13465 ft | 395 kts | 104° |
| 2026-04-20 12:36 | 42.96581 | 22.82139 | 13188 ft | 387 kts | 113° |
| 2026-04-20 12:37 | 42.95563 | 22.85571 | 12923 ft | 383 kts | 113° |
| 2026-04-20 12:37 | 42.94576 | 22.88892 | 12665 ft | 382 kts | 114° |
| 2026-04-20 12:37 | 42.93581 | 22.92246 | 12397 ft | 381 kts | 113° |
| 2026-04-20 12:37 | 42.92594 | 22.95573 | 12011 ft | 378 kts | 113° |
| 2026-04-20 12:38 | 42.91609 | 22.98892 | 11651 ft | 376 kts | 114° |
| 2026-04-20 12:38 | 42.90638 | 23.02164 | 11245 ft | 371 kts | 113° |
| 2026-04-20 12:38 | 42.89673 | 23.05412 | 10843 ft | 362 kts | 114° |
| 2026-04-20 12:38 | 42.88740 | 23.08548 | 10440 ft | 342 kts | 114° |
| 2026-04-20 12:39 | 42.87044 | 23.14243 | 9648 ft | 312 kts | 114° |
| 2026-04-20 12:39 | 42.86227 | 23.16971 | 9212 ft | 302 kts | 114° |
| 2026-04-20 12:39 | 42.85442 | 23.19592 | 8809 ft | 301 kts | 114° |
| 2026-04-20 12:40 | 42.84648 | 23.22240 | 8383 ft | 301 kts | 114° |
| 2026-04-20 12:40 | 42.83863 | 23.24861 | 7971 ft | 295 kts | 114° |
| 2026-04-20 12:40 | 42.83085 | 23.27450 | 7568 ft | 295 kts | 114° |
| 2026-04-20 12:40 | 42.82309 | 23.30027 | 7158 ft | 290 kts | 113° |
| 2026-04-20 12:41 | 42.81558 | 23.32519 | 6754 ft | 278 kts | 113° |
| 2026-04-20 12:41 | 42.80838 | 23.34911 | 6384 ft | 268 kts | 112° |
| 2026-04-20 12:41 | 42.80147 | 23.37205 | 6158 ft | 259 kts | 113° |
| 2026-04-20 12:41 | 42.79464 | 23.39469 | 6013 ft | 258 kts | 112° |
| 2026-04-20 12:42 | 42.78783 | 23.41724 | 5882 ft | 256 kts | 112° |
| 2026-04-20 12:42 | 42.78103 | 23.43970 | 5746 ft | 256 kts | 112° |
| 2026-04-20 12:42 | 42.77429 | 23.46197 | 5628 ft | 252 kts | 112° |
| 2026-04-20 12:42 | 42.76770 | 23.48370 | 5501 ft | 245 kts | 112° |
| 2026-04-20 12:43 | 42.76130 | 23.50474 | 5369 ft | 237 kts | 113° |
| 2026-04-20 12:43 | 42.75504 | 23.52531 | 5254 ft | 235 kts | 112° |
| 2026-04-20 12:43 | 42.74885 | 23.54571 | 5117 ft | 230 kts | 112° |
| 2026-04-20 12:43 | 42.74294 | 23.56551 | 4995 ft | 225 kts | 112° |
| 2026-04-20 12:44 | 42.73710 | 23.58519 | 4876 ft | 224 kts | 111° |
| 2026-04-20 12:44 | 42.73128 | 23.60471 | 4751 ft | 222 kts | 115° |
| 2026-04-20 12:44 | 42.72158 | 23.62062 | 4554 ft | 219 kts | 151° |
| 2026-04-20 12:44 | 42.70737 | 23.62620 | 4276 ft | 213 kts | 188° |
| 2026-04-20 12:45 | 42.69404 | 23.61986 | 4008 ft | 205 kts | 223° |
| 2026-04-20 12:45 | 42.68469 | 23.60536 | 3749 ft | 200 kts | 250° |
| 2026-04-20 12:45 | 42.68411 | 23.58787 | 3612 ft | 184 kts | 286° |
| 2026-04-20 12:45 | 42.68699 | 23.57182 | 3587 ft | 165 kts | 275° |
| 2026-04-20 12:46 | 42.68796 | 23.55681 | 3440 ft | 155 kts | 276° |
| 2026-04-20 12:46 | 42.68881 | 23.54264 | 3253 ft | 142 kts | 277° |
| 2026-04-20 12:46 | 42.68962 | 23.52953 | 3070 ft | 138 kts | 277° |
| 2026-04-20 12:46 | 42.69041 | 23.51651 | 2889 ft | 138 kts | 278° |
| 2026-04-20 12:47 | 42.69120 | 23.50359 | 2690 ft | 136 kts | 276° |
| 2026-04-20 12:47 | 42.69199 | 23.49076 | 2511 ft | 137 kts | 279° |
| 2026-04-20 12:47 | 42.69276 | 23.47803 | 2337 ft | 134 kts | 279° |
| 2026-04-20 12:47 | 42.69353 | 23.46551 | 2168 ft | 133 kts | 277° |
| 2026-04-20 12:48 | 42.69429 | 23.45285 | 2002 ft | 135 kts | 277° |
| 2026-04-20 12:48 | 42.69506 | 23.44019 | 1805 ft | 133 kts | 277° |
| 2026-04-20 12:48 | 42.69582 | 23.42860 | 1743 ft | 104 kts | 275° |
| 2026-04-20 12:48 | 42.69627 | 23.42099 | 1747 ft | 60 kts | 275° |
| 2026-04-20 12:49 | 42.69620 | 23.41695 | 1744 ft | 28 kts | 256° |
| 2026-04-20 12:49 | 42.69568 | 23.41516 | 1748 ft | 9 kts | 244° |
| 2026-04-20 12:49 | 42.69567 | 23.41512 | 1748 ft | 0 kts | 244° |
| 2026-04-20 12:49 | 42.69555 | 23.41479 | 1744 ft | 9 kts | 245° |
| 2026-04-20 12:50 | 42.69525 | 23.41390 | 1746 ft | 11 kts | 245° |
| 2026-04-20 12:50 | 42.69491 | 23.41280 | 1746 ft | 14 kts | 257° |
| 2026-04-20 12:50 | 42.69494 | 23.41142 | 1747 ft | 15 kts | 275° |
| 2026-04-20 12:50 | 42.69504 | 23.40988 | 1749 ft | 17 kts | 275° |
| 2026-04-20 12:51 | 42.69514 | 23.40814 | 1749 ft | 19 kts | 275° |
| 2026-04-20 12:51 | 42.69526 | 23.40625 | 1743 ft | 21 kts | 274° |
| 2026-04-20 12:51 | 42.69518 | 23.40495 | 1741 ft | 11 kts | 224° |
| 2026-04-20 12:51 | 42.69443 | 23.40457 | 1749 ft | 11 kts | 197° |
| 2026-04-20 12:52 | 42.69375 | 23.40429 | 1749 ft | 10 kts | 197° |
| 2026-04-20 12:52 | 42.69315 | 23.40404 | 1748 ft | 8 kts | 197° |
| 2026-04-20 12:52 | 42.69263 | 23.40382 | 1748 ft | 7 kts | 197° |
| 2026-04-20 12:52 | 42.69219 | 23.40363 | 1744 ft | 6 kts | 197° |
| 2026-04-20 12:53 | 42.69181 | 23.40348 | 1749 ft | 5 kts | 197° |
| 2026-04-20 12:53 | 42.69138 | 23.40383 | 1746 ft | 14 kts | 111° |
| 2026-04-20 12:53 | 42.69105 | 23.40538 | 1741 ft | 17 kts | 106° |
| 2026-04-20 12:53 | 42.69073 | 23.40683 | 1747 ft | 16 kts | 106° |
| 2026-04-20 12:54 | 42.69063 | 23.40816 | 1742 ft | 14 kts | 73° |
| 2026-04-20 12:54 | 42.69090 | 23.40934 | 1747 ft | 12 kts | 72° |
| 2026-04-20 12:54 | 42.69103 | 23.41035 | 1746 ft | 10 kts | 109° |
| 2026-04-20 12:54 | 42.69050 | 23.41073 | 1744 ft | 8 kts | 162° |
| 2026-04-20 12:55 | 42.69034 | 23.41080 | 1747 ft | 0 kts | 161° |
| 2026-04-20 12:55 | 42.69032 | 23.41081 | 1746 ft | 0 kts | 161° |